createdAt,value
2018-12-16T00:02:00.416Z,15.60
2018-12-16T00:04:33.148Z,15.53
2018-12-16T00:07:08.271Z,16.00
2018-12-16T00:09:40.911Z,15.80
2018-12-16T00:12:14.139Z,14.97
2018-12-16T00:14:49.335Z,15.53
2018-12-16T00:17:23.620Z,15.97
2018-12-16T00:19:57.357Z,15.60
2018-12-16T00:22:30.636Z,15.73
2018-12-16T00:25:03.755Z,16.00
2018-12-16T00:27:36.370Z,15.57
2018-12-16T00:30:13.591Z,16.10
2018-12-16T00:32:47.129Z,15.93
2018-12-16T00:35:19.876Z,15.80
2018-12-16T00:37:54.468Z,16.20
2018-12-16T00:40:27.256Z,16.70
2018-12-16T00:43:01.006Z,16.20
2018-12-16T00:45:36.279Z,16.00
2018-12-16T00:48:12.409Z,16.20
2018-12-16T00:50:46.581Z,16.80
2018-12-16T00:53:22.656Z,17.47
2018-12-16T00:55:57.041Z,16.43
2018-12-16T00:58:29.689Z,16.07
2018-12-16T01:01:03.346Z,16.77
2018-12-16T01:03:36.052Z,17.43
2018-12-16T01:06:10.068Z,16.93
2018-12-16T01:08:45.201Z,16.80
2018-12-16T01:11:23.466Z,17.70
2018-12-16T01:13:58.067Z,17.30
2018-12-16T01:16:34.860Z,15.87
2018-12-16T01:19:13.106Z,17.10
2018-12-16T01:21:45.844Z,16.63
2018-12-16T01:24:19.954Z,16.93
2018-12-16T01:26:53.656Z,18.40
2018-12-16T01:29:26.990Z,17.23
2018-12-16T01:32:00.964Z,16.80
2018-12-16T01:34:33.686Z,17.40
2018-12-16T01:37:10.833Z,16.77
2018-12-16T01:40:01.591Z,17.47
2018-12-16T01:42:35.175Z,17.92
2018-12-16T01:45:08.944Z,18.48
2018-12-16T01:47:49.506Z,16.93
2018-12-16T01:50:31.362Z,17.75
2018-12-16T01:53:04.533Z,17.43
2018-12-16T01:55:38.368Z,17.30
2018-12-16T01:58:14.633Z,17.37
2018-12-16T02:00:47.249Z,17.00
2018-12-16T02:03:20.012Z,16.30
2018-12-16T02:05:53.079Z,15.77
2018-12-16T02:08:26.242Z,17.35
2018-12-16T02:10:58.949Z,17.83
2018-12-16T02:13:32.980Z,17.70
2018-12-16T02:16:06.227Z,16.97
2018-12-16T02:18:39.412Z,17.53
2018-12-16T02:21:12.607Z,17.97
2018-12-16T02:23:46.131Z,18.30
2018-12-16T02:26:18.758Z,16.90
2018-12-16T02:28:52.351Z,19.13
2018-12-16T02:31:25.854Z,18.07
2018-12-16T02:33:58.507Z,19.67
2018-12-16T02:36:32.157Z,21.42
2018-12-16T02:39:05.683Z,20.90
2018-12-16T02:41:38.290Z,19.10
2018-12-16T02:44:11.465Z,21.63
2018-12-16T02:46:44.661Z,20.77
2018-12-16T02:49:17.448Z,21.27
2018-12-16T02:51:51.287Z,21.80
2018-12-16T02:54:24.090Z,21.60
2018-12-16T02:56:56.687Z,21.93
2018-12-16T02:59:32.068Z,22.62
2018-12-16T03:02:05.381Z,21.80
2018-12-16T03:04:38.643Z,20.50
2018-12-16T03:07:11.658Z,19.63
2018-12-16T03:09:44.395Z,19.67
2018-12-16T03:12:17.935Z,20.63
2018-12-16T03:14:53.191Z,21.07
2018-12-16T03:17:26.947Z,21.02
2018-12-16T03:19:59.586Z,20.20
2018-12-16T03:22:33.313Z,20.30
2018-12-16T03:25:06.733Z,19.60
2018-12-16T03:27:39.952Z,19.53
2018-12-16T03:30:14.742Z,18.53
2018-12-16T03:32:49.472Z,19.00
2018-12-16T03:35:23.185Z,19.13
2018-12-16T03:37:55.869Z,19.37
2018-12-16T03:40:28.637Z,19.33
2018-12-16T03:43:04.094Z,20.83
2018-12-16T03:45:36.885Z,20.00
2018-12-16T03:48:09.456Z,20.93
2018-12-16T03:50:42.359Z,20.27
2018-12-16T03:53:19.841Z,20.73
2018-12-16T03:55:54.160Z,20.43
2018-12-16T03:58:28.285Z,19.47
2018-12-16T04:01:01.017Z,20.20
2018-12-16T04:03:33.676Z,20.10
2018-12-16T04:06:06.587Z,20.45
2018-12-16T04:08:40.299Z,19.77
2018-12-16T04:11:13.000Z,20.90
2018-12-16T04:13:48.221Z,19.67
2018-12-16T04:16:20.822Z,21.73
2018-12-16T04:18:53.431Z,21.98
2018-12-16T04:21:27.476Z,19.40
2018-12-16T04:24:00.124Z,21.80
2018-12-16T04:26:32.918Z,20.80
2018-12-16T04:29:06.846Z,22.10
2018-12-16T04:31:39.872Z,21.83
2018-12-16T04:34:13.059Z,22.33
2018-12-16T04:36:46.070Z,22.33
2018-12-16T04:39:18.580Z,23.17
2018-12-16T04:41:51.195Z,24.23
2018-12-16T04:44:24.123Z,24.20
2018-12-16T04:46:56.663Z,24.23
2018-12-16T04:49:29.328Z,23.23
2018-12-16T04:52:02.412Z,22.80
2018-12-16T04:54:35.526Z,24.63
2018-12-16T04:57:08.032Z,22.07
2018-12-16T04:59:41.644Z,22.53
2018-12-16T05:02:14.267Z,22.73
2018-12-16T05:04:46.971Z,23.70
2018-12-16T05:07:20.964Z,23.57
2018-12-16T05:10:23.770Z,23.67
2018-12-16T05:12:58.085Z,23.13
2018-12-16T05:15:30.947Z,22.10
2018-12-16T05:18:03.745Z,23.23
2018-12-16T05:20:36.313Z,23.57
2018-12-16T05:23:09.248Z,24.50
2018-12-16T05:25:41.892Z,22.60
2018-12-16T05:28:14.659Z,22.33
2018-12-16T05:30:47.610Z,22.87
2018-12-16T05:33:20.420Z,22.30
2018-12-16T05:35:53.019Z,21.80
2018-12-16T05:38:25.888Z,22.93
2018-12-16T05:40:58.571Z,23.00
2018-12-16T05:43:31.307Z,22.23
2018-12-16T05:46:04.332Z,22.97
2018-12-16T05:48:37.221Z,22.13
2018-12-16T05:51:09.841Z,23.97
2018-12-16T05:53:48.367Z,21.97
2018-12-16T05:56:22.641Z,24.00
2018-12-16T05:58:55.411Z,23.65
2018-12-16T06:01:28.393Z,22.37
2018-12-16T06:04:00.952Z,21.53
2018-12-16T06:06:33.547Z,23.62
2018-12-16T06:09:07.156Z,22.23
2018-12-16T06:11:39.720Z,22.13
2018-12-16T06:14:13.305Z,29.57
2018-12-16T06:16:46.360Z,22.70
2018-12-16T06:19:18.903Z,22.23
2018-12-16T06:21:51.799Z,23.60
2018-12-16T06:24:25.793Z,23.37
2018-12-16T06:26:59.388Z,21.97
2018-12-16T06:29:32.164Z,21.07
2018-12-16T06:32:05.120Z,22.47
2018-12-16T06:34:37.742Z,22.97
2018-12-16T06:37:10.951Z,22.85
2018-12-16T06:39:44.294Z,22.30
2018-12-16T06:42:16.899Z,23.13
2018-12-16T06:44:49.576Z,22.50
2018-12-16T06:47:22.471Z,22.00
2018-12-16T06:49:55.189Z,21.57
2018-12-16T06:52:27.841Z,21.27
2018-12-16T06:55:03.105Z,22.40
2018-12-16T06:57:35.829Z,21.80
2018-12-16T07:00:08.428Z,23.33
2018-12-16T07:02:41.365Z,21.63
2018-12-16T07:05:13.934Z,21.43
2018-12-16T07:07:47.828Z,22.03
2018-12-16T07:10:20.799Z,22.40
2018-12-16T07:12:53.362Z,22.57
2018-12-16T07:15:26.137Z,21.33
2018-12-16T07:17:59.112Z,21.93
2018-12-16T07:20:32.447Z,21.07
2018-12-16T07:23:05.100Z,21.83
2018-12-16T07:25:39.663Z,22.53
2018-12-16T07:28:12.236Z,22.17
2018-12-16T07:30:45.724Z,21.10
2018-12-16T07:33:19.616Z,21.33
2018-12-16T07:35:52.290Z,22.47
2018-12-16T07:38:25.471Z,21.50
2018-12-16T07:40:59.513Z,21.97
2018-12-16T07:43:32.907Z,21.73
2018-12-16T07:46:07.076Z,21.10
2018-12-16T07:48:40.585Z,21.83
2018-12-16T07:51:13.163Z,22.53
2018-12-16T07:53:45.884Z,21.13
2018-12-16T07:56:18.848Z,21.03
2018-12-16T07:58:53.247Z,21.80
2018-12-16T08:01:26.120Z,21.13
2018-12-16T08:03:59.843Z,22.23
2018-12-16T08:06:32.593Z,21.80
2018-12-16T08:09:07.136Z,21.67
2018-12-16T08:11:40.449Z,21.90
2018-12-16T08:14:14.043Z,21.40
2018-12-16T08:16:46.817Z,21.97
2018-12-16T08:19:19.805Z,22.53
2018-12-16T08:21:54.376Z,22.00
2018-12-16T08:24:26.992Z,21.73
2018-12-16T08:27:01.233Z,22.27
2018-12-16T08:29:34.631Z,22.40
2018-12-16T08:32:09.323Z,22.33
2018-12-16T08:34:42.324Z,23.67
2018-12-16T08:37:14.906Z,23.57
2018-12-16T08:39:48.472Z,24.03
2018-12-16T08:42:21.496Z,26.20
2018-12-16T08:44:54.067Z,25.10
2018-12-16T08:47:33.041Z,25.47
2018-12-16T08:50:09.341Z,26.57
2018-12-16T08:52:43.127Z,24.73
2018-12-16T08:55:16.651Z,25.40
2018-12-16T08:57:49.490Z,26.13
2018-12-16T09:00:23.098Z,25.67
2018-12-16T09:02:56.489Z,24.47
2018-12-16T09:05:29.228Z,24.63
2018-12-16T09:08:03.993Z,25.03
2018-12-16T09:10:39.060Z,27.63
2018-12-16T09:13:15.165Z,24.17
2018-12-16T09:15:48.413Z,26.85
2018-12-16T09:18:23.221Z,25.03
2018-12-16T09:20:56.865Z,27.10
2018-12-16T09:23:30.350Z,26.07
2018-12-16T09:26:06.396Z,27.77
2018-12-16T09:28:39.264Z,26.50
2018-12-16T09:31:13.823Z,27.62
2018-12-16T09:33:47.043Z,24.80
2018-12-16T09:36:20.793Z,27.45
2018-12-16T09:38:54.643Z,25.20
2018-12-16T09:41:29.891Z,25.83
2018-12-16T09:44:03.375Z,24.03
2018-12-16T09:46:36.103Z,26.13
2018-12-16T09:49:09.936Z,26.20
2018-12-16T09:51:44.805Z,25.83
2018-12-16T09:54:17.490Z,25.13
2018-12-16T09:56:50.499Z,25.00
2018-12-16T09:59:25.495Z,24.73
2018-12-16T10:02:00.907Z,24.93
2018-12-16T10:04:37.124Z,24.63
2018-12-16T10:07:11.758Z,25.40
2018-12-16T10:09:45.814Z,25.00
2018-12-16T10:12:24.056Z,25.20
2018-12-16T10:14:56.968Z,26.07
2018-12-16T10:17:30.491Z,24.77
2018-12-16T10:20:08.148Z,25.60
2018-12-16T10:22:45.009Z,26.07
2018-12-16T10:25:20.356Z,25.97
2018-12-16T10:27:54.535Z,24.60
2018-12-16T10:30:31.354Z,26.13
2018-12-16T10:33:04.261Z,24.93
2018-12-16T10:35:39.129Z,26.00
2018-12-16T10:38:12.591Z,27.00
2018-12-16T10:40:51.318Z,25.97
2018-12-16T10:43:24.618Z,26.17
2018-12-16T10:45:58.337Z,27.23
2018-12-16T10:48:31.999Z,25.40
2018-12-16T10:51:06.670Z,26.37
2018-12-16T10:53:41.004Z,25.60
2018-12-16T10:56:16.824Z,26.53
2018-12-16T10:58:49.587Z,26.50
2018-12-16T11:01:28.118Z,26.33
2018-12-16T11:04:02.123Z,26.57
2018-12-16T11:06:44.660Z,26.40
2018-12-16T11:09:18.758Z,25.13
2018-12-16T11:11:56.159Z,25.87
2018-12-16T11:14:34.790Z,26.17
2018-12-16T11:17:11.330Z,24.67
2018-12-16T11:19:46.151Z,28.20
2018-12-16T11:22:20.189Z,27.37
2018-12-16T11:24:52.846Z,26.83
2018-12-16T11:27:27.313Z,26.67
2018-12-16T11:30:00.055Z,26.40
2018-12-16T11:32:36.753Z,25.63
2018-12-16T11:35:11.767Z,26.10
2018-12-16T11:37:46.228Z,25.63
2018-12-16T11:40:19.774Z,26.87
2018-12-16T11:42:54.264Z,27.10
2018-12-16T11:45:27.121Z,26.77
2018-12-16T11:48:01.164Z,28.23
2018-12-16T11:50:33.813Z,27.57
2018-12-16T11:53:08.026Z,28.67
2018-12-16T11:55:43.308Z,28.60
2018-12-16T11:58:18.486Z,30.97
2018-12-16T12:00:52.116Z,31.27
2018-12-16T12:03:26.828Z,30.85
2018-12-16T12:06:00.067Z,32.10
2018-12-16T12:08:33.775Z,28.80
2018-12-16T12:11:10.765Z,28.47
2018-12-16T12:13:46.227Z,30.92
2018-12-16T12:16:18.961Z,29.97
2018-12-16T12:19:01.993Z,30.37
2018-12-16T12:21:34.804Z,31.23
2018-12-16T12:24:08.457Z,30.17
2018-12-16T12:26:44.766Z,27.33
2018-12-16T12:29:17.711Z,30.73
2018-12-16T12:31:52.083Z,28.73
2018-12-16T12:34:26.344Z,27.40
2018-12-16T12:37:00.599Z,31.58
2018-12-16T12:39:39.175Z,31.12
2018-12-16T12:42:11.887Z,28.57
2018-12-16T12:44:45.658Z,28.47
2018-12-16T12:47:20.638Z,29.00
2018-12-16T12:49:54.134Z,29.03
2018-12-16T12:52:26.813Z,28.20
2018-12-16T12:55:02.347Z,28.43
2018-12-16T12:57:36.483Z,28.57
2018-12-16T13:00:17.232Z,29.63
2018-12-16T13:02:51.073Z,29.60
2018-12-16T13:05:25.614Z,29.83
2018-12-16T13:08:00.328Z,31.98
2018-12-16T13:10:34.589Z,30.10
2018-12-16T13:13:09.508Z,27.83
2018-12-16T13:15:42.478Z,30.10
2018-12-16T13:18:17.236Z,27.87
2018-12-16T13:20:51.955Z,27.30
2018-12-16T13:23:26.874Z,28.50
2018-12-16T13:26:05.364Z,27.87
2018-12-16T13:28:39.780Z,27.50
2018-12-16T13:31:14.584Z,28.20
2018-12-16T13:33:48.812Z,28.00
2018-12-16T13:36:24.402Z,27.47
2018-12-16T13:38:57.435Z,27.50
2018-12-16T13:41:30.779Z,27.87
2018-12-16T13:44:06.870Z,29.65
2018-12-16T13:46:41.734Z,27.23
2018-12-16T13:49:14.931Z,27.57
2018-12-16T13:51:49.287Z,25.47
2018-12-16T13:54:22.225Z,27.10
2018-12-16T13:56:58.656Z,27.37
2018-12-16T13:59:33.955Z,28.33
2018-12-16T14:02:18.909Z,29.17
2018-12-16T14:04:52.638Z,28.43
2018-12-16T14:07:25.805Z,26.00
2018-12-16T14:09:59.391Z,27.43
2018-12-16T14:12:33.264Z,27.60
2018-12-16T14:15:08.836Z,27.47
2018-12-16T14:17:45.801Z,26.20
2018-12-16T14:20:19.448Z,28.60
2018-12-16T14:22:53.503Z,27.20
2018-12-16T14:25:39.642Z,26.27
2018-12-16T14:28:36.437Z,29.05
2018-12-16T14:31:12.848Z,28.05
2018-12-16T14:33:48.367Z,25.00
2018-12-16T14:36:22.295Z,25.50
2018-12-16T14:38:59.779Z,24.00
2018-12-16T14:41:36.009Z,25.23
2018-12-16T14:44:12.136Z,25.77
2018-12-16T14:46:48.626Z,23.27
2018-12-16T14:49:22.377Z,25.30
2018-12-16T14:51:57.955Z,24.47
2018-12-16T14:54:33.183Z,23.37
2018-12-16T14:57:07.920Z,25.90
2018-12-16T14:59:41.378Z,23.43
2018-12-16T15:02:14.561Z,24.67
2018-12-16T15:04:49.758Z,24.77
2018-12-16T15:07:25.113Z,23.97
2018-12-16T15:09:59.051Z,23.60
2018-12-16T15:12:32.979Z,23.97
2018-12-16T15:15:09.361Z,23.33
2018-12-16T15:17:47.691Z,24.40
2018-12-16T15:20:20.994Z,24.47
2018-12-16T15:22:54.829Z,24.17
2018-12-16T15:25:29.576Z,25.17
2018-12-16T15:28:02.888Z,24.43
2018-12-16T15:30:35.603Z,23.00
2018-12-16T15:33:17.574Z,24.07
2018-12-16T15:35:50.861Z,23.47
2018-12-16T15:38:25.358Z,23.87
2018-12-16T15:40:58.539Z,22.73
2018-12-16T15:43:33.422Z,24.20
2018-12-16T15:46:06.207Z,21.57
2018-12-16T15:48:39.826Z,23.27
2018-12-16T15:51:13.867Z,23.47
2018-12-16T15:53:49.588Z,22.57
2018-12-16T15:56:22.772Z,22.37
2018-12-16T15:58:58.538Z,22.20
2018-12-16T16:01:39.395Z,23.07
2018-12-16T16:04:14.075Z,21.27
2018-12-16T16:06:50.819Z,20.43
2018-12-16T16:09:26.565Z,23.80
2018-12-16T16:12:04.288Z,22.57
2018-12-16T16:14:36.909Z,23.07
2018-12-16T16:17:10.679Z,22.13
2018-12-16T16:19:44.596Z,23.00
2018-12-16T16:22:17.438Z,24.30
2018-12-16T16:24:50.707Z,21.70
2018-12-16T16:27:26.623Z,20.93
2018-12-16T16:30:04.199Z,21.43
2018-12-16T16:32:41.178Z,21.77
2018-12-16T16:35:19.242Z,21.87
2018-12-16T16:38:00.490Z,21.20
2018-12-16T16:40:34.768Z,21.07
2018-12-16T16:43:10.321Z,20.93
2018-12-16T16:45:44.927Z,23.20
2018-12-16T16:48:18.667Z,25.37
2018-12-16T16:50:52.915Z,23.30
2018-12-16T16:53:27.586Z,22.60
2018-12-16T16:56:00.249Z,21.17
2018-12-16T16:58:33.665Z,20.10
2018-12-16T17:01:06.364Z,20.57
2018-12-16T17:03:40.068Z,20.70
2018-12-16T17:06:13.815Z,19.77
2018-12-16T17:08:47.777Z,22.20
2018-12-16T17:11:33.919Z,21.63
2018-12-16T17:14:12.222Z,23.23
2018-12-16T17:16:49.942Z,21.33
2018-12-16T17:19:24.684Z,22.17
2018-12-16T17:21:59.071Z,23.62
2018-12-16T17:24:32.503Z,21.97
2018-12-16T17:27:08.593Z,22.57
2018-12-16T17:29:42.352Z,21.67
2018-12-16T17:32:19.468Z,21.03
2018-12-16T17:34:53.253Z,21.83
2018-12-16T17:37:26.640Z,22.33
2018-12-16T17:40:00.140Z,21.77
2018-12-16T17:42:34.616Z,22.27
2018-12-16T17:45:08.437Z,22.87
2018-12-16T17:47:42.384Z,22.57
2018-12-16T17:50:18.800Z,22.77
2018-12-16T17:52:52.356Z,23.50
2018-12-16T17:55:26.914Z,21.80
2018-12-16T17:58:04.987Z,21.93
2018-12-16T18:00:39.691Z,22.00
2018-12-16T18:03:14.648Z,22.07
2018-12-16T18:05:50.107Z,21.77
2018-12-16T18:08:25.029Z,21.53
2018-12-16T18:10:59.352Z,22.63
2018-12-16T18:13:32.641Z,21.20
2018-12-16T18:16:07.596Z,21.03
2018-12-16T18:18:41.076Z,23.08
2018-12-16T18:21:17.602Z,20.73
2018-12-16T18:23:51.151Z,23.80
2018-12-16T18:26:27.811Z,20.40
2018-12-16T18:29:00.892Z,20.00
2018-12-16T18:31:33.642Z,19.77
2018-12-16T18:34:07.248Z,23.65
2018-12-16T18:36:41.949Z,20.27
2018-12-16T18:39:16.334Z,19.70
2018-12-16T18:41:52.257Z,19.80
2018-12-16T18:44:26.441Z,20.53
2018-12-16T18:47:00.057Z,19.70
2018-12-16T18:49:34.879Z,19.50
2018-12-16T18:52:09.055Z,20.70
2018-12-16T18:54:44.218Z,20.00
2018-12-16T18:57:19.986Z,20.13
2018-12-16T18:59:55.517Z,21.47
2018-12-16T19:02:30.776Z,21.27
2018-12-16T19:05:08.681Z,19.50
2018-12-16T19:07:43.005Z,20.30
2018-12-16T19:10:18.061Z,19.23
2018-12-16T19:12:55.658Z,20.80
2018-12-16T19:15:32.377Z,19.60
2018-12-16T19:18:05.435Z,20.50
2018-12-16T19:20:38.707Z,18.93
2018-12-16T19:23:16.767Z,20.13
2018-12-16T19:25:51.623Z,18.53
2018-12-16T19:28:29.776Z,17.97
2018-12-16T19:31:04.417Z,18.50
2018-12-16T19:33:37.213Z,18.67
2018-12-16T19:36:13.624Z,19.47
2018-12-16T19:38:46.641Z,17.77
2018-12-16T19:41:20.351Z,19.07
2018-12-16T19:43:54.395Z,18.43
2018-12-16T19:46:29.069Z,19.90
2018-12-16T19:49:04.466Z,19.35
2018-12-16T19:51:48.375Z,18.30
2018-12-16T19:54:25.606Z,17.73
2018-12-16T19:57:05.113Z,18.27
2018-12-16T19:59:40.201Z,18.80
2018-12-16T20:02:14.683Z,17.23
2018-12-16T20:05:02.493Z,17.63
2018-12-16T20:07:37.608Z,17.37
2018-12-16T20:10:28.986Z,17.37
2018-12-16T20:13:03.107Z,17.60
2018-12-16T20:15:37.481Z,17.67
2018-12-16T20:18:13.322Z,18.30
2018-12-16T20:20:51.987Z,18.63
2018-12-16T20:23:30.985Z,17.10
2018-12-16T20:26:06.974Z,17.03
2018-12-16T20:28:52.368Z,18.30
2018-12-16T20:31:32.092Z,17.70
2018-12-16T20:34:06.681Z,18.23
2018-12-16T20:36:40.784Z,16.93
2018-12-16T20:39:21.430Z,16.20
2018-12-16T20:41:54.672Z,16.60
2018-12-16T20:44:32.366Z,17.80
2018-12-16T20:47:08.477Z,16.30
2018-12-16T20:49:42.113Z,16.60
2018-12-16T20:52:15.951Z,17.53
2018-12-16T20:54:49.840Z,16.37
2018-12-16T20:57:22.601Z,16.13
2018-12-16T20:59:56.620Z,16.80
2018-12-16T21:02:32.471Z,15.83
2018-12-16T21:05:07.291Z,18.00
2018-12-16T21:07:44.188Z,17.33
2018-12-16T21:10:18.538Z,17.13
2018-12-16T21:12:59.052Z,17.98
2018-12-16T21:15:38.369Z,16.80
2018-12-16T21:18:22.516Z,17.17
2018-12-16T21:20:57.620Z,17.07
2018-12-16T21:23:33.983Z,17.70
2018-12-16T21:26:08.750Z,17.47
2018-12-16T21:28:42.671Z,17.00
2018-12-16T21:31:18.593Z,16.27
2018-12-16T21:33:51.711Z,16.60
2018-12-16T21:36:25.426Z,17.33
2018-12-16T21:39:00.728Z,17.40
2018-12-16T21:41:35.042Z,18.55
2018-12-16T21:44:10.380Z,18.60
2018-12-16T21:46:45.208Z,17.50
2018-12-16T21:49:20.389Z,18.10
2018-12-16T21:51:53.512Z,18.60
2018-12-16T21:54:29.358Z,18.87
2018-12-16T21:57:03.057Z,18.83
2018-12-16T21:59:38.540Z,17.10
2018-12-16T22:02:11.951Z,16.83
2018-12-16T22:04:45.826Z,18.70
2018-12-16T22:07:21.853Z,17.60
2018-12-16T22:09:55.699Z,16.10
2018-12-16T22:12:35.829Z,18.85
2018-12-16T22:15:08.646Z,17.97
2018-12-16T22:17:41.802Z,19.15
2018-12-16T22:20:15.197Z,19.55
2018-12-16T22:22:49.336Z,17.33
2018-12-16T22:25:25.594Z,16.53
2018-12-16T22:28:02.256Z,19.03
2018-12-16T22:30:35.984Z,17.63
2018-12-16T22:33:09.846Z,19.67
2018-12-16T22:35:42.739Z,18.70
2018-12-16T22:38:16.404Z,18.90
2018-12-16T22:40:49.719Z,18.40
2018-12-16T22:43:22.479Z,19.43
2018-12-16T22:45:56.140Z,19.97
2018-12-16T22:48:30.295Z,21.07
2018-12-16T22:51:03.222Z,21.37
2018-12-16T22:53:35.865Z,19.97
2018-12-16T22:56:09.705Z,20.13
2018-12-16T22:58:46.494Z,21.65
2018-12-16T23:01:19.912Z,19.60
2018-12-16T23:03:55.920Z,19.57
2018-12-16T23:06:29.632Z,18.60
2018-12-16T23:09:04.548Z,19.30
2018-12-16T23:11:57.143Z,19.23
2018-12-16T23:14:31.068Z,21.53
2018-12-16T23:17:04.343Z,19.83
2018-12-16T23:19:39.052Z,18.90
2018-12-16T23:22:11.927Z,20.25
2018-12-16T23:24:47.371Z,18.53
2018-12-16T23:27:20.356Z,17.53
2018-12-16T23:29:54.984Z,17.20
2018-12-16T23:32:27.773Z,16.23
2018-12-16T23:35:01.056Z,16.23
2018-12-16T23:37:35.358Z,17.00
2018-12-16T23:40:10.396Z,15.97
2018-12-16T23:42:44.214Z,17.42
2018-12-16T23:45:16.226Z,15.17
2018-12-16T23:47:48.928Z,15.13
2018-12-16T23:50:22.098Z,14.50
2018-12-16T23:52:54.923Z,14.07
2018-12-16T23:55:28.164Z,14.50
2018-12-16T23:58:01.309Z,14.33
